地図

経路データ

SID SEASON NUMBER BASIN SUBBASIN NAME ISO_TIME NATURE LAT LON WMO_WIND WMO_PRES WMO_AGENCY TRACK_TYPE DIST2LAND LANDFALL IFLAG USA_AGENCY USA_ATCF_ID USA_LAT USA_LON USA_RECORD USA_STATUS USA_WIND USA_PRES USA_SSHS USA_R34_NE USA_R34_SE USA_R34_SW USA_R34_NW USA_R50_NE USA_R50_SE USA_R50_SW USA_R50_NW USA_R64_NE USA_R64_SE USA_R64_SW USA_R64_NW USA_POCI USA_ROCI USA_RMW USA_EYE TOKYO_LAT TOKYO_LON TOKYO_GRADE TOKYO_WIND TOKYO_PRES TOKYO_R50_DIR TOKYO_R50_LONG TOKYO_R50_SHORT TOKYO_R30_DIR TOKYO_R30_LONG TOKYO_R30_SHORT TOKYO_LAND CMA_LAT CMA_LON CMA_CAT CMA_WIND CMA_PRES HKO_LAT HKO_LON HKO_CAT HKO_WIND HKO_PRES NEWDELHI_LAT NEWDELHI_LON NEWDELHI_GRADE NEWDELHI_WIND NEWDELHI_PRES NEWDELHI_CI NEWDELHI_DP NEWDELHI_POCI REUNION_LAT REUNION_LON REUNION_TYPE REUNION_WIND REUNION_PRES REUNION_TNUM REUNION_CI REUNION_RMW REUNION_R34_NE REUNION_R34_SE REUNION_R34_SW REUNION_R34_NW REUNION_R50_NE REUNION_R50_SE REUNION_R50_SW REUNION_R50_NW REUNION_R64_NE REUNION_R64_SE REUNION_R64_SW REUNION_R64_NW BOM_LAT BOM_LON BOM_TYPE BOM_WIND BOM_PRES BOM_TNUM BOM_CI BOM_RMW BOM_R34_NE BOM_R34_SE BOM_R34_SW BOM_R34_NW BOM_R50_NE BOM_R50_SE BOM_R50_SW BOM_R50_NW BOM_R64_NE BOM_R64_SE BOM_R64_SW BOM_R64_NW BOM_ROCI BOM_POCI BOM_EYE BOM_POS_METHOD BOM_PRES_METHOD NADI_LAT NADI_LON NADI_CAT NADI_WIND NADI_PRES WELLINGTON_LAT WELLINGTON_LON WELLINGTON_WIND WELLINGTON_PRES DS824_LAT DS824_LON DS824_STAGE DS824_WIND DS824_PRES TD9636_LAT TD9636_LON TD9636_STAGE TD9636_WIND TD9636_PRES TD9635_LAT TD9635_LON TD9635_WIND TD9635_PRES TD9635_ROCI NEUMANN_LAT NEUMANN_LON NEUMANN_CLASS NEUMANN_WIND NEUMANN_PRES MLC_LAT MLC_LON MLC_CLASS MLC_WIND MLC_PRES USA_GUST BOM_GUST BOM_GUST_PER REUNION_GUST REUNION_GUST_PER USA_SEAHGT USA_SEARAD_NE USA_SEARAD_SE USA_SEARAD_SW USA_SEARAD_NW STORM_SPEED STORM_DIR
1975237N22290 1975 78 NA NA CAROLINE 1975-08-24 12:00:00 TS 22.4000 -69.8000 25 1011 hurdat_atl main 302 258 O_____________ hurdat_atl AL071975 22.4000 -69.8000 TD 25 1011 -1 13 245
1975237N22290 1975 78 NA NA CAROLINE 1975-08-24 15:00:00 TS 22.1279 -70.4382 main 258 211 P_____________ AL071975 22.1279 -70.4382 TD 25 1011 -1 13 247
1975237N22290 1975 78 NA NA CAROLINE 1975-08-24 18:00:00 TS 21.9000 -71.1000 25 1011 hurdat_atl main 211 141 O_____________ hurdat_atl AL071975 21.9000 -71.1000 TD 25 1011 -1 13 253
1975237N22290 1975 78 NA NA CAROLINE 1975-08-24 21:00:00 TS 21.7424 -71.7996 main 136 68 P_____________ AL071975 21.7424 -71.7996 TD 25 1010 -1 13 257
1975237N22290 1975 78 NA NA CAROLINE 1975-08-25 00:00:00 TS 21.6000 -72.5000 25 1010 hurdat_atl main 68 22 O_____________ hurdat_atl AL071975 21.6000 -72.5000 TD 25 1010 -1 13 255
1975237N22290 1975 78 NA NA CAROLINE 1975-08-25 03:00:00 TS 21.3997 -73.1575 main 22 11 P_____________ AL071975 21.3997 -73.1575 TD 25 1010 -1 13 252
1975237N22290 1975 78 NA NA CAROLINE 1975-08-25 06:00:00 TS 21.2000 -73.8000 25 1010 hurdat_atl main 15 15 O_____________ hurdat_atl AL071975 21.2000 -73.8000 TD 25 1010 -1 13 253
1975237N22290 1975 78 NA NA CAROLINE 1975-08-25 09:00:00 TS 21.0423 -74.4498 main 54 33 P_____________ AL071975 21.0423 -74.4498 TD 25 1010 -1 13 256
1975237N22290 1975 78 NA NA CAROLINE 1975-08-25 12:00:00 TS 20.9000 -75.1000 25 1011 hurdat_atl main 33 0 O_____________ hurdat_atl AL071975 20.9000 -75.1000 TD 25 1011 -1 13 256
1975237N22290 1975 78 NA NA CAROLINE 1975-08-25 15:00:00 TS 20.7423 -75.7500 main 0 0 P_____________ AL071975 20.7423 -75.7500 TD 25 1011 -1 13 256
1975237N22290 1975 78 NA NA CAROLINE 1975-08-25 18:00:00 TS 20.6000 -76.4000 25 1011 hurdat_atl main 0 0 O_____________ hurdat_atl AL071975 20.6000 -76.4000 TD 25 1011 -1 12 258
1975237N22290 1975 78 NA CS CAROLINE 1975-08-25 21:00:00 TS 20.4848 -77.0499 main 0 0 P_____________ AL071975 20.4848 -77.0499 TD 25 1011 -1 12 261
1975237N22290 1975 78 NA CS CAROLINE 1975-08-26 00:00:00 TS 20.4000 -77.7000 25 1011 hurdat_atl main 33 33 O_____________ hurdat_atl AL071975 20.4000 -77.7000 TD 25 1011 -1 12 263
1975237N22290 1975 78 NA CS CAROLINE 1975-08-26 03:00:00 TS 20.3423 -78.3499 main 54 54 P_____________ AL071975 20.3423 -78.3499 TD 25 1011 -1 12 265
1975237N22290 1975 78 NA CS CAROLINE 1975-08-26 06:00:00 TS 20.3000 -79.0000 25 1011 hurdat_atl main 93 93 O_____________ hurdat_atl AL071975 20.3000 -79.0000 TD 25 1011 -1 12 265
1975237N22290 1975 78 NA CS CAROLINE 1975-08-26 09:00:00 TS 20.2423 -79.6501 main 153 153 P_____________ AL071975 20.2423 -79.6501 TD 25 1011 -1 12 265
1975237N22290 1975 78 NA CS CAROLINE 1975-08-26 12:00:00 TS 20.2000 -80.3000 25 1012 hurdat_atl main 170 170 O_____________ hurdat_atl AL071975 20.2000 -80.3000 TD 25 1012 -1 12 267
1975237N22290 1975 78 NA CS CAROLINE 1975-08-26 15:00:00 TS 20.1773 -80.9576 main 197 182 P_____________ AL071975 20.1773 -80.9576 TD 25 1012 -1 12 270
1975237N22290 1975 78 NA CS CAROLINE 1975-08-26 18:00:00 TS 20.2000 -81.6000 25 1012 hurdat_atl main 182 137 O_____________ hurdat_atl AL071975 20.2000 -81.6000 TD 25 1012 -1 12 275
1975237N22290 1975 78 NA CS CAROLINE 1975-08-26 21:00:00 TS 20.2697 -82.2076 main 137 111 P_____________ AL071975 20.2697 -82.2076 TD 25 1012 -1 11 280
1975237N22290 1975 78 NA CS CAROLINE 1975-08-27 00:00:00 TS 20.4000 -82.8000 25 1013 hurdat_atl main 111 102 O_____________ hurdat_atl AL071975 20.4000 -82.8000 TD 25 1013 -1 12 286
1975237N22290 1975 78 NA CS CAROLINE 1975-08-27 03:00:00 TS 20.5924 -83.4074 main 108 108 P_____________ AL071975 20.5924 -83.4074 TD 25 1013 -1 12 290
1975237N22290 1975 78 NA CS CAROLINE 1975-08-27 06:00:00 TS 20.8000 -84.0000 25 1013 hurdat_atl main 123 100 O_____________ hurdat_atl AL071975 20.8000 -84.0000 TD 25 1013 -1 11 288
1975237N22290 1975 78 NA CS CAROLINE 1975-08-27 09:00:00 TS 20.9497 -84.5503 main 101 78 P_____________ AL071975 20.9497 -84.5503 TD 25 1013 -1 11 286
1975237N22290 1975 78 NA CS CAROLINE 1975-08-27 12:00:00 TS 21.1000 -85.1000 25 1014 hurdat_atl main 84 84 O_____________ hurdat_atl AL071975 21.1000 -85.1000 TD 25 1014 -1 11 287
1975237N22290 1975 78 NA CS CAROLINE 1975-08-27 15:00:00 TS 21.2849 -85.6926 main 98 56 P_____________ AL071975 21.2849 -85.6926 TD 25 1014 -1 12 290
1975237N22290 1975 78 NA CS CAROLINE 1975-08-27 18:00:00 TS 21.5000 -86.3000 25 1014 hurdat_atl main 56 24 O_____________ hurdat_atl AL071975 21.5000 -86.3000 TD 25 1014 -1 12 293
1975237N22290 1975 78 NA GM CAROLINE 1975-08-27 21:00:00 TS 21.7497 -86.8926 main 24 24 P_____________ AL071975 21.7497 -86.8926 TD 25 1014 -1 12 294
1975237N22290 1975 78 NA GM CAROLINE 1975-08-28 00:00:00 TS 22.0000 -87.5000 25 1014 hurdat_atl main 59 56 O_____________ hurdat_atl AL071975 22.0000 -87.5000 TD 25 1014 -1 12 292
1975237N22290 1975 78 NA GM CAROLINE 1975-08-28 03:00:00 TS 22.2073 -88.1428 main 78 78 P_____________ AL071975 22.2073 -88.1428 TD 25 1014 -1 13 288
1975237N22290 1975 78 NA GM CAROLINE 1975-08-28 06:00:00 TS 22.4000 -88.8000 25 1014 hurdat_atl main 102 102 O_____________ hurdat_atl AL071975 22.4000 -88.8000 TD 25 1014 -1 13 289
1975237N22290 1975 78 NA GM CAROLINE 1975-08-28 09:00:00 TS 22.6226 -89.4798 main 146 146 P_____________ AL071975 22.6226 -89.4798 TD 25 1013 -1 13 288
1975237N22290 1975 78 NA GM CAROLINE 1975-08-28 12:00:00 TS 22.8000 -90.1000 25 1013 hurdat_atl main 180 180 O_____________ hurdat_atl AL071975 22.8000 -90.1000 TD 25 1013 -1 10 284
1975237N22290 1975 78 NA GM CAROLINE 1975-08-28 15:00:00 TS 22.8721 -90.5803 main 203 203 P_____________ AL071975 22.8721 -90.5803 TD 25 1011 -1 8 277
1975237N22290 1975 78 NA GM CAROLINE 1975-08-28 18:00:00 TS 22.9000 -91.0000 25 1010 hurdat_atl main 213 213 O_____________ hurdat_atl AL071975 22.9000 -91.0000 TD 25 1010 -1 8 275
1975237N22290 1975 78 NA GM CAROLINE 1975-08-28 21:00:00 TS 22.9500 -91.4650 main 236 236 P_____________ AL071975 22.9500 -91.4650 TD 27 1008 -1 8 277
1975237N22290 1975 78 NA GM CAROLINE 1975-08-29 00:00:00 TS 23.0000 -91.9000 30 1007 hurdat_atl main 268 268 O_____________ hurdat_atl AL071975 23.0000 -91.9000 TD 30 1007 -1 8 278
1975237N22290 1975 78 NA GM CAROLINE 1975-08-29 03:00:00 TS 23.0499 -92.2725 main 295 295 P_____________ AL071975 23.0499 -92.2725 TD 32 1005 -1 7 279
1975237N22290 1975 78 NA GM CAROLINE 1975-08-29 06:00:00 TS 23.1000 -92.6000 35 1003 hurdat_atl main 325 325 O_____________ hurdat_atl AL071975 23.1000 -92.6000 TS 35 1003 0 6 280
1975237N22290 1975 78 NA GM CAROLINE 1975-08-29 09:00:00 TS 23.1575 -92.9225 main 356 356 P_____________ AL071975 23.1575 -92.9225 TS 37 1001 0 6 280
1975237N22290 1975 78 NA GM CAROLINE 1975-08-29 12:00:00 TS 23.2000 -93.2000 40 999 hurdat_atl main 379 379 O_____________ hurdat_atl AL071975 23.2000 -93.2000 TS 40 999 0 4 276
1975237N22290 1975 78 NA GM CAROLINE 1975-08-29 15:00:00 TS 23.1998 -93.4001 main 396 396 P_____________ AL071975 23.1998 -93.4001 TS 45 996 0 4 270
1975237N22290 1975 78 NA GM CAROLINE 1975-08-29 18:00:00 TS 23.2000 -93.6000 50 994 hurdat_atl main 412 392 O_____________ hurdat_atl AL071975 23.2000 -93.6000 TS 50 994 0 4 275
1975237N22290 1975 78 NA GM CAROLINE 1975-08-29 21:00:00 TS 23.2350 -93.8775 main 392 367 P_____________ AL071975 23.2350 -93.8775 TS 57 992 0 6 280
1975237N22290 1975 78 NA GM CAROLINE 1975-08-30 00:00:00 TS 23.3000 -94.2000 65 990 hurdat_atl main 367 336 O_____________ hurdat_atl AL071975 23.3000 -94.2000 HU 65 990 1 6 284
1975237N22290 1975 78 NA GM CAROLINE 1975-08-30 03:00:00 TS 23.3925 -94.5425 main 336 295 P_____________ AL071975 23.3925 -94.5425 HU 65 990 1 7 287
1975237N22290 1975 78 NA GM CAROLINE 1975-08-30 06:00:00 TS 23.5000 -94.9000 65 990 hurdat_atl main 295 264 O_____________ hurdat_atl AL071975 23.5000 -94.9000 HU 65 990 1 7 288
1975237N22290 1975 78 NA GM CAROLINE 1975-08-30 09:00:00 TS 23.6074 -95.2500 main 264 223 P_____________ AL071975 23.6074 -95.2500 HU 65 989 1 7 287
1975237N22290 1975 78 NA GM CAROLINE 1975-08-30 12:00:00 TS 23.7000 -95.6000 65 989 hurdat_atl main 223 193 O_____________ hurdat_atl AL071975 23.7000 -95.6000 HU 65 989 1 7 283
1975237N22290 1975 78 NA GM CAROLINE 1975-08-30 15:00:00 TS 23.7499 -95.9501 main 183 152 P_____________ AL071975 23.7499 -95.9501 HU 67 988 1 6 279
1975237N22290 1975 78 NA GM CAROLINE 1975-08-30 18:00:00 TS 23.8000 -96.3000 70 987 hurdat_atl main 152 121 O_____________ hurdat_atl AL071975 23.8000 -96.3000 HU 70 987 1 7 283
1975237N22290 1975 78 NA GM CAROLINE 1975-08-30 21:00:00 TS 23.9000 -96.6649 main 111 81 P_____________ AL071975 23.9000 -96.6649 HU 85 980 2 7 287
1975237N22290 1975 78 NA GM CAROLINE 1975-08-31 00:00:00 TS 24.0000 -97.0000 100 973 hurdat_atl main 81 50 O_____________ hurdat_atl AL071975 24.0000 -97.0000 HU 100 973 3 6 285
1975237N22290 1975 78 NA GM CAROLINE 1975-08-31 03:00:00 TS 24.0499 -97.2801 main 50 30 P_____________ AL071975 24.0499 -97.2801 HU 100 968 3 5 282
1975237N22290 1975 78 NA GM CAROLINE 1975-08-31 06:00:00 TS 24.1000 -97.5000 100 963 hurdat_atl main 30 10 O_____________ hurdat_atl AL071975 24.1000 -97.5000 HU 100 963 3 4 289
1975237N22290 1975 78 NA GM CAROLINE 1975-08-31 09:00:00 TS 24.1699 -97.6726 main 10 0 P_____________ AL071975 24.1699 -97.6726 HU 95 963 2 3 306
1975237N22290 1975 78 NA NA CAROLINE 1975-08-31 12:00:00 TS 24.3000 -97.8000 90 963 hurdat_atl main 0 0 O_____________ hurdat_atl AL071975 24.3000 -97.8000 HU 90 963 2 4 331
1975237N22290 1975 78 NA NA CAROLINE 1975-08-31 15:00:00 TS 24.5425 -97.9000 main 0 0 P_____________ AL071975 24.5425 -97.9000 HU 72 978 1 5 340
1975237N22290 1975 78 NA NA CAROLINE 1975-08-31 18:00:00 TS 24.8000 -98.0000 55 993 hurdat_atl main 0 0 O_____________ hurdat_atl AL071975 24.8000 -98.0000 TS 55 993 0 5 334
1975237N22290 1975 78 NA NA CAROLINE 1975-08-31 21:00:00 TS 24.9800 -98.1350 main 0 0 P_____________ AL071975 24.9800 -98.1350 TS 42 996 0 4 318
1975237N22290 1975 78 NA NA CAROLINE 1975-09-01 00:00:00 TS 25.1000 -98.3000 30 1000 hurdat_atl main 0 0 O_____________ hurdat_atl AL071975 25.1000 -98.3000 TD 30 1000 -1 4 299
1975237N22290 1975 78 NA NA CAROLINE 1975-09-01 03:00:00 TS 25.1650 -98.5001 main 0 0 P_____________ AL071975 25.1650 -98.5001 TD 25 1001 -1 4 285
1975237N22290 1975 78 NA NA CAROLINE 1975-09-01 06:00:00 TS 25.2000 -98.7000 20 1002 hurdat_atl main 0 0 O_____________ hurdat_atl AL071975 25.2000 -98.7000 TD 20 1002 -1 3 284
1975237N22290 1975 78 NA NA CAROLINE 1975-09-01 09:00:00 TS 25.2450 -98.8625 main 0 0 P_____________ AL071975 25.2450 -98.8625 TD 20 1002 -1 3 290
1975237N22290 1975 78 NA NA CAROLINE 1975-09-01 12:00:00 TS 25.3000 -99.0000 20 1002 hurdat_atl main 0 O_____________ hurdat_atl AL071975 25.3000 -99.0000 TD 20 1002 -1 3 294

IBTrACS Databaseについて

本データベースは、米国NOAAが公開する1842年以降の世界の熱帯低気圧のベストトラックデータアーカイブInternational Best Track Archive for Climate Stewardship (IBTrACS)を、ウェブで閲覧しやすい形式に変換したものです。

最終更新日:2021-10-21